Pagina principale
METAR-TAF:

METAR-TAF

Aeroporti :

Aeroporto di Comiso

Comiso, Italia

latitudine: 36-59-30N, longitudine: 14-36-25E, altezza: 190 m

Osservazione

Il bollettino è stato emesso 55 minuti fa, alle 14:50 UTC
Vento 4 kt da sud-ovest, variando fra sud-est e ovest/sud-ovest
Temperature 15°C
Umidità 77%
Pressione 1012 hPa
Visibilità 10 km o più
nessuna nube inferiore a 1500 m e nessun cumulonembo

METAR: LICB 091450Z 22004KT 140V240 CAVOK 15/11 Q1012

Ora: 16:45 (15:45 UTC)

Previsione

Il bollettino è stato emesso 1 ora e 45 minuti fa, alle 14:00 UTC
Previsione valida dal 09 alle 15 UTC al 09 alle 24 UTC
Vento 8 kt da est/nord-est
Visibilità 10 km o più
Nuvoloso ad un'altezza di 3000 ft
Evoluzione graduale
dal 09 alle 15 UTC al 09 alle 17 UTC
Vento 10 kt da ovest/sud-ovest
Evoluzione graduale
dal 09 alle 18 UTC al 09 alle 20 UTC
Vento 5 kt da direzioni variabili

TAF: LICB 091400Z 0915/0924 06008KT 9999 BKN030 BECMG 0915/0917 25010KT BECMG 0918/0920 VRB05KT

Osservazioni e previsioni meteorologiche di più di 4000 aeroporti (messaggi METAR e TAF).

Le stazioni disponibili sono rappresentate dai dischi gialli e rossi sulla carta.

Puntare il mouse per vedere il nome della stazione.

Clicca sopra per visualizzare le osservazioni e previsioni meteorologiche.

Per cambiare la mappa : fare clic sui pulsanti verdi con una croce nera per ingrandire, il pulsante verde con un trattino per diminuire, o sulla freccia verde per le mappe adiacenti.


METAR-TAF: